Time;durP1;ratioP1;P1;durP2;ratioP2;P2;SDS_P1;SDS_P2;PMS_P1;PMS_P2;Temp;Humidity;BMP_temperature;BMP_pressure;BME280_temperature;BME280_humidity;BME280_pressure;Samples;Min_cycle;Max_cycle;Signal;HPM_P1;HPM_P2
2023/07/30 00:01:49;;;;;;;0.10;0.10;;;;;;;;;;5150162;27;20066;-60
2023/07/30 00:04:14;;;;;;;0.17;0.17;;;;;;;;;;5149565;27;20103;-61
2023/07/30 00:06:40;;;;;;;0.20;0.20;;;;;;;;;;5150105;27;20050;-60
2023/07/30 00:09:06;;;;;;;0.10;0.10;;;;;;;;;;5152369;27;20039;-60
2023/07/30 00:11:31;;;;;;;0.10;0.10;;;;;;;;;;5153771;27;20074;-60
2023/07/30 00:13:57;;;;;;;0.20;0.20;;;;;;;;;;5154480;27;20081;-61
2023/07/30 00:16:25;;;;;;;0.20;0.20;;;;;;;;;;5153039;27;20053;-61
2023/07/30 00:18:50;;;;;;;0.10;0.10;;;;;;;;;;5152356;27;20051;-60
2023/07/30 00:21:16;;;;;;;0.20;0.20;;;;;;;;;;5140898;27;20127;-61
2023/07/30 00:23:41;;;;;;;0.20;0.20;;;;;;;;;;5133007;28;20183;-61
2023/07/30 00:26:07;;;;;;;0.20;0.20;;;;;;;;;;5133878;27;20047;-61
2023/07/30 00:28:32;;;;;;;0.20;0.20;;;;;;;;;;5154506;27;20047;-60
2023/07/30 00:30:58;;;;;;;0.10;0.10;;;;;;;;;;5153709;27;20072;-60
2023/07/30 00:33:24;;;;;;;0.20;0.20;;;;;;;;;;5153858;27;20388;-61
2023/07/30 00:35:51;;;;;;;0.20;0.20;;;;;;;;;;5154740;27;20049;-61
2023/07/30 00:38:18;;;;;;;0.10;0.10;;;;;;;;;;5153891;27;20418;-60
2023/07/30 00:40:43;;;;;;;0.20;0.20;;;;;;;;;;5153532;27;20038;-60
2023/07/30 00:43:09;;;;;;;0.20;0.20;;;;;;;;;;5154377;27;20079;-61
2023/07/30 00:45:35;;;;;;;0.10;0.10;;;;;;;;;;5154838;27;20046;-60
2023/07/30 00:48:01;;;;;;;0.20;0.20;;;;;;;;;;5154292;27;20054;-60
2023/07/30 00:50:26;;;;;;;0.20;0.20;;;;;;;;;;5153938;27;20043;-60
2023/07/30 00:52:52;;;;;;;0.13;0.13;;;;;;;;;;5154411;27;20050;-60
2023/07/30 00:55:18;;;;;;;0.17;0.17;;;;;;;;;;5153973;27;20445;-59
2023/07/30 00:57:44;;;;;;;0.13;0.13;;;;;;;;;;5154002;27;20050;-60
2023/07/30 01:00:10;;;;;;;0.10;0.10;;;;;;;;;;5153997;27;21291;-61
2023/07/30 01:02:36;;;;;;;0.13;0.13;;;;;;;;;;5154220;27;20080;-61
2023/07/30 01:05:03;;;;;;;0.20;0.20;;;;;;;;;;5153762;27;20046;-60
2023/07/30 01:07:29;;;;;;;0.20;0.20;;;;;;;;;;5153351;27;20070;-61
2023/07/30 01:09:55;;;;;;;0.20;0.20;;;;;;;;;;5152999;27;20043;-60
2023/07/30 01:12:21;;;;;;;0.17;0.17;;;;;;;;;;5153152;27;20439;-61
2023/07/30 01:14:47;;;;;;;0.20;0.20;;;;;;;;;;5153715;27;20065;-61
2023/07/30 01:17:13;;;;;;;0.20;0.20;;;;;;;;;;5153185;27;20399;-58
2023/07/30 01:19:39;;;;;;;0.15;0.15;;;;;;;;;;5153104;27;20089;-60
2023/07/30 01:22:04;;;;;;;0.20;0.20;;;;;;;;;;5153094;27;20129;-60
2023/07/30 01:24:30;;;;;;;0.20;0.20;;;;;;;;;;5153624;27;20508;-60
2023/07/30 01:26:58;;;;;;;0.20;0.20;;;;;;;;;;5153480;27;20047;-60
2023/07/30 01:29:28;;;;;;;0.20;0.20;;;;;;;;;;5152850;27;20043;-61
2023/07/30 01:31:56;;;;;;;0.13;0.13;;;;;;;;;;5136436;27;20095;-61
2023/07/30 01:34:21;;;;;;;;;;;;;;;;;;5153074;27;20096;-61
2023/07/30 01:36:48;;;;;;;0.20;0.20;;;;;;;;;;5153363;27;20013;-61
2023/07/30 01:39:14;;;;;;;0.20;0.20;;;;;;;;;;5153069;27;20046;-60
2023/07/30 01:41:40;;;;;;;0.10;0.10;;;;;;;;;;5150785;27;20510;-61
2023/07/30 01:44:05;;;;;;;0.15;0.15;;;;;;;;;;5153000;27;20043;-61
2023/07/30 01:46:31;;;;;;;0.20;0.20;;;;;;;;;;5152679;27;20043;-60
2023/07/30 01:48:57;;;;;;;0.20;0.20;;;;;;;;;;5153189;27;20491;-60
2023/07/30 01:51:22;;;;;;;0.20;0.20;;;;;;;;;;5161604;27;20046;-60
2023/07/30 01:53:48;;;;;;;0.20;0.20;;;;;;;;;;5173791;27;20046;-60
2023/07/30 01:56:13;;;;;;;0.15;0.15;;;;;;;;;;5173972;27;20042;-60
2023/07/30 01:58:39;;;;;;;0.20;0.20;;;;;;;;;;5173663;27;20042;-61
2023/07/30 02:01:04;;;;;;;0.20;0.20;;;;;;;;;;5149417;27;20070;-60
2023/07/30 02:03:30;;;;;;;0.17;0.17;;;;;;;;;;5150938;27;20490;-61
2023/07/30 02:05:56;;;;;;;0.20;0.20;;;;;;;;;;5152597;27;20054;-61
2023/07/30 02:08:21;;;;;;;0.20;0.20;;;;;;;;;;5151993;27;20086;-60
2023/07/30 02:11:02;;;;;;;0.10;0.10;;;;;;;;;;5152109;27;20414;-60
2023/07/30 02:13:27;;;;;;;0.20;0.20;;;;;;;;;;5152350;27;20038;-60
2023/07/30 02:15:53;;;;;;;0.20;0.20;;;;;;;;;;5152273;27;20064;-60
2023/07/30 02:18:18;;;;;;;0.20;0.20;;;;;;;;;;5152939;27;21445;-60
2023/07/30 02:20:44;;;;;;;0.10;0.10;;;;;;;;;;5149746;27;20391;-42
2023/07/30 02:23:09;;;;;;;0.20;0.20;;;;;;;;;;5152485;27;20051;-45
2023/07/30 02:25:35;;;;;;;0.20;0.20;;;;;;;;;;5152847;27;20080;-44
2023/07/30 02:28:01;;;;;;;0.20;0.20;;;;;;;;;;5152483;27;20055;-42
2023/07/30 02:30:27;;;;;;;0.20;0.20;;;;;;;;;;5150067;27;20042;-43
2023/07/30 02:32:53;;;;;;;0.20;0.20;;;;;;;;;;5151792;27;20099;-43
2023/07/30 02:35:18;;;;;;;0.15;0.15;;;;;;;;;;5152003;27;20516;-45
2023/07/30 02:37:44;;;;;;;0.20;0.20;;;;;;;;;;5152207;27;20084;-45
2023/07/30 02:40:10;;;;;;;0.20;0.20;;;;;;;;;;5149134;27;20047;-60
2023/07/30 02:42:35;;;;;;;0.10;0.10;;;;;;;;;;5139961;27;20046;-61
2023/07/30 02:45:01;;;;;;;0.20;0.20;;;;;;;;;;5152657;27;20042;-59
2023/07/30 02:47:26;;;;;;;0.20;0.20;;;;;;;;;;5151671;27;20046;-60
2023/07/30 02:49:53;;;;;;;0.20;0.20;;;;;;;;;;5148367;27;20050;-61
2023/07/30 02:52:18;;;;;;;0.20;0.20;;;;;;;;;;5152592;27;20487;-61
2023/07/30 02:54:44;;;;;;;0.20;0.20;;;;;;;;;;5152446;27;20174;-61
2023/07/30 02:57:11;;;;;;;0.10;0.10;;;;;;;;;;5152676;27;20395;-60
2023/07/30 02:59:37;;;;;;;0.20;0.20;;;;;;;;;;5152224;27;20058;-61
2023/07/30 03:02:04;;;;;;;0.20;0.20;;;;;;;;;;5152124;27;20042;-61
2023/07/30 03:04:30;;;;;;;0.10;0.10;;;;;;;;;;5152087;27;20053;-61
2023/07/30 03:06:56;;;;;;;0.20;0.20;;;;;;;;;;5152154;27;20279;-61
2023/07/30 03:09:22;;;;;;;0.20;0.20;;;;;;;;;;5151821;27;20043;-61
2023/07/30 03:11:49;;;;;;;0.10;0.10;;;;;;;;;;5149719;27;20047;-61
2023/07/30 03:14:14;;;;;;;0.20;0.20;;;;;;;;;;5151522;27;20495;-61
2023/07/30 03:16:40;;;;;;;0.20;0.20;;;;;;;;;;5151986;27;20138;-60
2023/07/30 03:19:05;;;;;;;0.20;0.20;;;;;;;;;;5152370;27;20506;-61
2023/07/30 03:21:31;;;;;;;0.20;0.20;;;;;;;;;;5140776;27;20398;-60
2023/07/30 03:23:56;;;;;;;0.20;0.20;;;;;;;;;;5152037;27;20050;-61
2023/07/30 03:26:22;;;;;;;0.20;0.20;;;;;;;;;;5151877;27;20050;-61
2023/07/30 03:28:47;;;;;;;0.20;0.20;;;;;;;;;;5152195;27;20062;-61
2023/07/30 03:31:13;;;;;;;0.15;0.15;;;;;;;;;;5152000;27;20050;-60
2023/07/30 03:33:43;;;;;;;0.20;0.20;;;;;;;;;;5151668;27;20440;-61
2023/07/30 03:36:10;;;;;;;0.20;0.20;;;;;;;;;;5151376;27;20057;-61
2023/07/30 03:38:35;;;;;;;0.20;0.20;;;;;;;;;;5150353;27;20099;-61
2023/07/30 03:41:01;;;;;;;0.10;0.10;;;;;;;;;;5140218;27;20044;-61
2023/07/30 03:43:26;;;;;;;0.10;0.10;;;;;;;;;;5133445;27;20047;-61
2023/07/30 03:45:52;;;;;;;0.15;0.15;;;;;;;;;;5155111;27;20338;-60
2023/07/30 03:48:17;;;;;;;0.20;0.20;;;;;;;;;;5154965;27;20058;-60
2023/07/30 03:50:43;;;;;;;0.20;0.20;;;;;;;;;;5150180;27;20043;-60
2023/07/30 03:53:08;;;;;;;0.20;0.20;;;;;;;;;;5134707;28;20070;-61
2023/07/30 03:55:34;;;;;;;0.20;0.20;;;;;;;;;;5143101;27;20483;-61
2023/07/30 03:57:59;;;;;;;0.20;0.20;;;;;;;;;;5155319;27;20454;-61
2023/07/30 04:00:25;;;;;;;0.20;0.20;;;;;;;;;;5154784;27;20062;-61
2023/07/30 04:02:50;;;;;;;0.20;0.20;;;;;;;;;;5155205;27;20101;-61
2023/07/30 04:05:16;;;;;;;0.20;0.20;;;;;;;;;;5155349;27;20050;-60
2023/07/30 04:07:42;;;;;;;0.10;0.10;;;;;;;;;;5153442;27;20050;-60
2023/07/30 04:10:08;;;;;;;0.20;0.20;;;;;;;;;;5153927;27;20077;-61
2023/07/30 04:12:33;;;;;;;0.10;0.10;;;;;;;;;;5154248;27;20547;-61
2023/07/30 04:14:59;;;;;;;0.10;0.10;;;;;;;;;;5155088;27;20042;-61
2023/07/30 04:17:24;;;;;;;0.20;0.20;;;;;;;;;;5154452;27;20474;-60
2023/07/30 04:19:50;;;;;;;0.20;0.20;;;;;;;;;;5153622;27;20043;-60
2023/07/30 04:22:15;;;;;;;0.10;0.10;;;;;;;;;;5134211;28;20051;-60
2023/07/30 04:24:41;;;;;;;0.10;0.10;;;;;;;;;;5150232;27;20057;-61
2023/07/30 04:27:07;;;;;;;0.10;0.10;;;;;;;;;;5155209;27;20063;-61
2023/07/30 04:29:32;;;;;;;0.20;0.20;;;;;;;;;;5154985;27;20107;-61
2023/07/30 04:31:58;;;;;;;0.20;0.20;;;;;;;;;;5135499;27;20073;-61
2023/07/30 04:34:23;;;;;;;0.10;0.10;;;;;;;;;;5143304;27;20402;-60
2023/07/30 04:36:58;;;;;;;0.20;0.20;;;;;;;;;;5154309;27;20046;-61
2023/07/30 04:39:23;;;;;;;0.10;0.10;;;;;;;;;;5153148;27;20095;-61
2023/07/30 04:41:49;;;;;;;0.10;0.10;;;;;;;;;;5153677;27;20038;-61
2023/07/30 04:44:15;;;;;;;0.20;0.20;;;;;;;;;;5154384;27;20050;-60
2023/07/30 04:46:40;;;;;;;0.20;0.20;;;;;;;;;;5153845;27;20111;-60
2023/07/30 04:49:06;;;;;;;0.20;0.20;;;;;;;;;;5150989;27;20479;-61
2023/07/30 04:51:31;;;;;;;0.10;0.10;;;;;;;;;;5153803;27;20085;-60
2023/07/30 04:53:57;;;;;;;0.10;0.10;;;;;;;;;;5154433;27;20050;-61
2023/07/30 04:56:22;;;;;;;0.15;0.15;;;;;;;;;;5154008;27;20463;-60
2023/07/30 04:58:48;;;;;;;0.20;0.20;;;;;;;;;;5154316;27;20095;-61
2023/07/30 05:01:13;;;;;;;0.15;0.15;;;;;;;;;;5154042;27;20454;-61
2023/07/30 05:03:39;;;;;;;0.20;0.20;;;;;;;;;;5154189;27;20422;-61
2023/07/30 05:06:04;;;;;;;0.10;0.10;;;;;;;;;;5154615;27;20070;-61
2023/07/30 05:08:30;;;;;;;0.20;0.20;;;;;;;;;;5153713;27;20054;-61
2023/07/30 05:10:56;;;;;;;0.20;0.20;;;;;;;;;;5153458;27;20088;-60
2023/07/30 05:13:21;;;;;;;0.20;0.20;;;;;;;;;;5151903;27;20092;-60
2023/07/30 05:15:47;;;;;;;0.20;0.20;;;;;;;;;;5153334;27;20050;-60
2023/07/30 05:18:13;;;;;;;0.10;0.10;;;;;;;;;;5153294;27;20426;-60
2023/07/30 05:20:39;;;;;;;0.17;0.17;;;;;;;;;;5153774;27;20043;-61
2023/07/30 05:23:06;;;;;;;0.20;0.20;;;;;;;;;;5153852;27;20326;-60
2023/07/30 05:25:32;;;;;;;0.10;0.10;;;;;;;;;;5153732;27;20055;-61
2023/07/30 05:27:57;;;;;;;0.20;0.20;;;;;;;;;;5153759;27;20043;-61
2023/07/30 05:30:23;;;;;;;0.20;0.20;;;;;;;;;;5153652;27;20054;-61
2023/07/30 05:32:49;;;;;;;0.20;0.20;;;;;;;;;;5154133;27;20053;-61
2023/07/30 05:35:14;;;;;;;0.20;0.20;;;;;;;;;;5153924;27;20477;-60
2023/07/30 05:37:40;;;;;;;0.10;0.10;;;;;;;;;;5153269;27;20099;-61
2023/07/30 05:40:06;;;;;;;0.20;0.20;;;;;;;;;;5152775;27;20046;-61
2023/07/30 05:42:32;;;;;;;0.20;0.20;;;;;;;;;;5152794;27;20054;-61
2023/07/30 05:44:57;;;;;;;0.20;0.20;;;;;;;;;;5153838;27;20455;-61
2023/07/30 05:47:23;;;;;;;0.20;0.20;;;;;;;;;;5151977;27;20051;-60
2023/07/30 05:49:49;;;;;;;0.20;0.20;;;;;;;;;;5162545;27;20405;-61
2023/07/30 05:52:14;;;;;;;0.20;0.20;;;;;;;;;;5147304;27;20076;-61
2023/07/30 05:54:40;;;;;;;0.20;0.20;;;;;;;;;;5153605;27;20034;-61
2023/07/30 05:57:05;;;;;;;0.20;0.20;;;;;;;;;;5153388;27;20047;-61
2023/07/30 05:59:31;;;;;;;0.20;0.20;;;;;;;;;;5153302;27;20473;-61
2023/07/30 06:02:01;;;;;;;0.20;0.20;;;;;;;;;;5153078;27;20099;-61
2023/07/30 06:04:26;;;;;;;0.20;0.20;;;;;;;;;;5152946;27;20527;-61
2023/07/30 06:06:52;;;;;;;0.20;0.20;;;;;;;;;;5152291;27;20047;-61
2023/07/30 06:09:17;;;;;;;0.20;0.20;;;;;;;;;;5152409;27;20050;-61
2023/07/30 06:11:43;;;;;;;0.20;0.20;;;;;;;;;;5135308;27;20096;-61
2023/07/30 06:14:08;;;;;;;0.20;0.20;;;;;;;;;;5149217;27;20047;-61
2023/07/30 06:16:34;;;;;;;0.20;0.20;;;;;;;;;;5151306;27;20061;-60
2023/07/30 06:19:00;;;;;;;0.20;0.20;;;;;;;;;;5152428;27;20047;-60
2023/07/30 06:21:25;;;;;;;0.20;0.20;;;;;;;;;;5151337;27;20075;-60
2023/07/30 06:23:51;;;;;;;0.20;0.20;;;;;;;;;;5152511;27;20043;-61
2023/07/30 06:26:16;;;;;;;0.10;0.10;;;;;;;;;;5152537;27;20058;-60
2023/07/30 06:28:42;;;;;;;0.20;0.20;;;;;;;;;;5151734;27;20071;-60
2023/07/30 06:31:07;;;;;;;0.10;0.10;;;;;;;;;;5140459;27;20071;-61
2023/07/30 06:33:33;;;;;;;0.20;0.20;;;;;;;;;;5131757;28;20054;-61
2023/07/30 06:35:58;;;;;;;0.20;0.20;;;;;;;;;;5131970;28;20071;-61
2023/07/30 06:38:24;;;;;;;0.20;0.20;;;;;;;;;;5144569;27;20137;-61
2023/07/30 06:40:50;;;;;;;0.20;0.20;;;;;;;;;;5149848;27;20046;-61
2023/07/30 06:43:15;;;;;;;0.20;0.20;;;;;;;;;;5151788;27;20051;-60
2023/07/30 06:45:41;;;;;;;0.20;0.20;;;;;;;;;;5152306;27;20050;-61
2023/07/30 06:48:06;;;;;;;0.20;0.20;;;;;;;;;;5138429;27;20044;-60
2023/07/30 06:50:32;;;;;;;0.20;0.20;;;;;;;;;;5139935;27;20054;-60
2023/07/30 06:52:57;;;;;;;0.20;0.20;;;;;;;;;;5151080;27;20053;-61
2023/07/30 06:55:23;;;;;;;0.20;0.20;;;;;;;;;;5151648;27;20050;-60
2023/07/30 06:57:48;;;;;;;0.20;0.20;;;;;;;;;;5151675;27;20038;-60
2023/07/30 07:00:21;;;;;;;0.20;0.20;;;;;;;;;;5151441;27;20046;-60
2023/07/30 07:02:47;;;;;;;0.20;0.20;;;;;;;;;;5151450;27;20137;-61
2023/07/30 07:05:13;;;;;;;0.20;0.20;;;;;;;;;;5151848;27;20547;-61
2023/07/30 07:07:38;;;;;;;0.20;0.20;;;;;;;;;;5151793;27;20125;-61
2023/07/30 07:10:04;;;;;;;0.20;0.20;;;;;;;;;;5150744;27;20464;-61
2023/07/30 07:12:30;;;;;;;0.20;0.20;;;;;;;;;;5151017;27;20050;-61
2023/07/30 07:14:58;;;;;;;0.20;0.20;;;;;;;;;;5151025;27;20053;-61
2023/07/30 07:17:24;;;;;;;0.10;0.10;;;;;;;;;;5151347;27;20498;-61
2023/07/30 07:19:50;;;;;;;0.20;0.20;;;;;;;;;;5155091;27;20464;-60
2023/07/30 07:22:17;;;;;;;0.20;0.20;;;;;;;;;;5154355;27;20042;-60
2023/07/30 07:24:44;;;;;;;0.10;0.10;;;;;;;;;;5154544;27;20095;-60
2023/07/30 07:27:09;;;;;;;0.20;0.20;;;;;;;;;;5155114;27;20051;-61
2023/07/30 07:29:35;;;;;;;0.20;0.20;;;;;;;;;;5154702;27;20519;-61
2023/07/30 07:32:00;;;;;;;0.20;0.20;;;;;;;;;;5135470;27;20150;-60
2023/07/30 07:34:26;;;;;;;0.17;0.17;;;;;;;;;;5134843;28;20047;-60
2023/07/30 07:36:51;;;;;;;0.20;0.20;;;;;;;;;;5134495;28;20054;-61
2023/07/30 07:39:18;;;;;;;0.20;0.20;;;;;;;;;;5139882;27;20057;-61
2023/07/30 07:41:43;;;;;;;0.20;0.20;;;;;;;;;;5139264;27;20047;-61
2023/07/30 07:44:09;;;;;;;0.20;0.20;;;;;;;;;;5154487;27;20438;-61
2023/07/30 07:46:34;;;;;;;0.20;0.20;;;;;;;;;;5154269;27;20050;-61
2023/07/30 07:49:00;;;;;;;0.20;0.20;;;;;;;;;;5154954;27;20043;-60
2023/07/30 07:51:25;;;;;;;0.20;0.20;;;;;;;;;;5154395;27;20396;-60
2023/07/30 07:53:51;;;;;;;0.20;0.20;;;;;;;;;;5155195;27;20047;-60
2023/07/30 07:56:16;;;;;;;0.20;0.20;;;;;;;;;;5154543;27;20406;-61
2023/07/30 07:58:43;;;;;;;0.20;0.20;;;;;;;;;;5154403;27;20051;-61
2023/07/30 08:01:08;;;;;;;0.20;0.20;;;;;;;;;;5142596;27;20104;-60
2023/07/30 08:03:34;;;;;;;0.20;0.20;;;;;;;;;;5134392;28;20082;-60
2023/07/30 08:05:59;;;;;;;0.20;0.20;;;;;;;;;;5134197;28;20115;-60
2023/07/30 08:08:26;;;;;;;0.20;0.20;;;;;;;;;;5135783;27;20070;-60
2023/07/30 08:10:52;;;;;;;0.20;0.20;;;;;;;;;;5153703;27;20783;-60
2023/07/30 08:13:17;;;;;;;0.20;0.20;;;;;;;;;;5155350;27;20098;-60
2023/07/30 08:15:43;;;;;;;0.20;0.20;;;;;;;;;;5155362;27;20384;-60
2023/07/30 08:18:08;;;;;;;0.20;0.20;;;;;;;;;;5153542;27;20050;-59
2023/07/30 08:20:34;;;;;;;0.20;0.20;;;;;;;;;;5146952;27;20099;-61
2023/07/30 08:23:00;;;;;;;0.20;0.20;;;;;;;;;;5138981;27;20102;-61
2023/07/30 08:25:25;;;;;;;0.20;0.20;;;;;;;;;;5154623;27;20474;-60
2023/07/30 08:27:51;;;;;;;0.30;0.30;;;;;;;;;;5155229;27;20506;-60
2023/07/30 08:30:16;;;;;;;0.20;0.20;;;;;;;;;;5153563;27;20039;-60
2023/07/30 08:32:43;;;;;;;0.20;0.20;;;;;;;;;;5154523;27;20123;-60
2023/07/30 08:35:09;;;;;;;0.20;0.20;;;;;;;;;;5155045;27;20053;-60
2023/07/30 08:37:34;;;;;;;0.20;0.20;;;;;;;;;;5135881;27;20133;-60
2023/07/30 08:40:00;;;;;;;0.20;0.20;;;;;;;;;;5154629;27;20074;-60
2023/07/30 08:42:25;;;;;;;0.20;0.20;;;;;;;;;;5153791;27;20049;-60
2023/07/30 08:44:51;;;;;;;0.20;0.20;;;;;;;;;;5153836;27;20062;-60
2023/07/30 08:47:16;;;;;;;0.20;0.20;;;;;;;;;;5152955;27;20070;-60
2023/07/30 08:49:42;;;;;;;0.20;0.20;;;;;;;;;;5175485;27;20504;-59
2023/07/30 08:52:09;;;;;;;0.17;0.17;;;;;;;;;;5133652;27;20047;-60
2023/07/30 08:54:35;;;;;;;0.20;0.20;;;;;;;;;;5152536;27;20073;-60
2023/07/30 08:57:01;;;;;;;0.20;0.20;;;;;;;;;;5153875;27;20047;-60
2023/07/30 08:59:29;;;;;;;0.17;0.17;;;;;;;;;;5153996;27;20126;-60
2023/07/30 09:01:55;;;;;;;0.20;0.20;;;;;;;;;;5153536;27;20095;-60
2023/07/30 09:04:21;;;;;;;0.20;0.20;;;;;;;;;;5153747;27;20130;-60
2023/07/30 09:06:48;;;;;;;0.20;0.20;;;;;;;;;;5153932;27;20543;-60
2023/07/30 09:09:16;;;;;;;0.20;0.20;;;;;;;;;;5153558;27;20090;-60
2023/07/30 09:11:42;;;;;;;0.20;0.20;;;;;;;;;;5153240;27;20503;-60
2023/07/30 09:14:09;;;;;;;0.20;0.20;;;;;;;;;;5154126;27;20146;-60
2023/07/30 09:16:34;;;;;;;0.10;0.10;;;;;;;;;;5153689;27;20061;-60
2023/07/30 09:19:00;;;;;;;0.20;0.20;;;;;;;;;;5153222;27;20380;-60
2023/07/30 09:21:29;;;;;;;0.10;0.10;;;;;;;;;;5151305;27;20047;-60
2023/07/30 09:23:55;;;;;;;0.20;0.20;;;;;;;;;;5153780;27;20047;-60
2023/07/30 09:26:21;;;;;;;0.20;0.20;;;;;;;;;;5153190;27;20247;-60
2023/07/30 09:28:47;;;;;;;0.20;0.20;;;;;;;;;;5153506;27;20043;-60
2023/07/30 09:31:12;;;;;;;0.20;0.20;;;;;;;;;;5152886;27;20463;-60
2023/07/30 09:33:48;;;;;;;0.20;0.20;;;;;;;;;;5152998;27;20055;-60
2023/07/30 09:36:15;;;;;;;0.10;0.10;;;;;;;;;;5152947;27;20053;-60
2023/07/30 09:38:42;;;;;;;0.10;0.10;;;;;;;;;;5153707;27;20039;-60
2023/07/30 09:41:09;;;;;;;0.10;0.10;;;;;;;;;;5151549;27;20050;-60
2023/07/30 09:43:35;;;;;;;0.10;0.10;;;;;;;;;;5153464;27;20058;-60
2023/07/30 09:46:01;;;;;;;0.10;0.10;;;;;;;;;;5152913;27;20061;-59
2023/07/30 09:48:27;;;;;;;0.20;0.20;;;;;;;;;;5157368;27;20047;-60
2023/07/30 09:50:53;;;;;;;0.10;0.10;;;;;;;;;;5153096;27;20053;-60
2023/07/30 09:53:19;;;;;;;0.20;0.20;;;;;;;;;;5153688;27;20073;-60
2023/07/30 09:55:46;;;;;;;0.20;0.20;;;;;;;;;;5153052;27;20538;-60
2023/07/30 09:58:12;;;;;;;0.20;0.20;;;;;;;;;;5153293;27;20051;-60
2023/07/30 10:00:38;;;;;;;0.10;0.10;;;;;;;;;;5145493;27;20134;-60
2023/07/30 10:03:03;;;;;;;0.20;0.20;;;;;;;;;;5132797;28;20051;-60
2023/07/30 10:05:33;;;;;;;0.10;0.10;;;;;;;;;;5133142;28;20398;-62
2023/07/30 10:08:01;;;;;;;0.20;0.20;;;;;;;;;;5132729;28;20047;-60
2023/07/30 10:10:28;;;;;;;0.10;0.10;;;;;;;;;;5130786;27;20051;-60
2023/07/30 10:12:55;;;;;;;0.20;0.20;;;;;;;;;;5132847;28;20074;-60
2023/07/30 10:15:23;;;;;;;0.10;0.10;;;;;;;;;;5132535;28;20047;-60
2023/07/30 10:17:50;;;;;;;0.10;0.10;;;;;;;;;;5132301;28;20043;-60
2023/07/30 10:20:19;;;;;;;0.15;0.15;;;;;;;;;;5140240;27;20163;-60
2023/07/30 10:22:45;;;;;;;0.10;0.10;;;;;;;;;;5151963;27;20085;-60
2023/07/30 10:25:12;;;;;;;0.20;0.20;;;;;;;;;;5153134;27;20099;-60
2023/07/30 10:27:39;;;;;;;0.20;0.20;;;;;;;;;;5152757;27;20077;-60
2023/07/30 10:30:09;;;;;;;0.10;0.10;;;;;;;;;;5149705;27;20054;-60
2023/07/30 10:32:37;;;;;;;0.10;0.10;;;;;;;;;;5143972;27;20094;-60
2023/07/30 10:35:03;;;;;;;0.10;0.10;;;;;;;;;;5152403;27;20062;-60
2023/07/30 10:37:28;;;;;;;0.20;0.20;;;;;;;;;;5153182;27;20046;-60
2023/07/30 10:39:54;;;;;;;0.20;0.20;;;;;;;;;;5152503;27;20046;-60
2023/07/30 10:42:19;;;;;;;0.20;0.20;;;;;;;;;;5151467;27;20403;-59
2023/07/30 10:44:45;;;;;;;0.20;0.20;;;;;;;;;;5152646;27;20054;-60
2023/07/30 10:47:11;;;;;;;0.20;0.20;;;;;;;;;;5147811;27;20103;-60
2023/07/30 10:50:00;;;;;;;0.20;0.20;;;;;;;;;;5150739;27;20058;-60
2023/07/30 10:52:26;;;;;;;0.20;0.20;;;;;;;;;;5150852;27;20081;-60
2023/07/30 10:54:59;;;;;;;0.20;0.20;;;;;;;;;;5153009;27;20049;-60
2023/07/30 10:57:29;;;;;;;0.20;0.20;;;;;;;;;;5152169;27;20043;-59
2023/07/30 10:59:56;;;;;;;0.20;0.20;;;;;;;;;;5151741;27;20193;-60
2023/07/30 11:02:22;;;;;;;0.20;0.20;;;;;;;;;;5152020;27;20072;-60
2023/07/30 11:04:48;;;;;;;0.10;0.10;;;;;;;;;;5152585;27;20484;-59
2023/07/30 11:07:16;;;;;;;0.20;0.20;;;;;;;;;;5152545;27;20043;-60
2023/07/30 11:09:42;;;;;;;0.20;0.20;;;;;;;;;;5152348;27;20417;-60
2023/07/30 11:12:08;;;;;;;0.20;0.20;;;;;;;;;;5151523;27;20099;-60
2023/07/30 11:14:34;;;;;;;0.10;0.10;;;;;;;;;;5152330;27;20509;-60
2023/07/30 11:16:59;;;;;;;0.20;0.20;;;;;;;;;;5151999;27;20047;-60
2023/07/30 11:19:26;;;;;;;0.20;0.20;;;;;;;;;;5152433;27;20050;-60
2023/07/30 11:21:53;;;;;;;0.10;0.10;;;;;;;;;;5150964;27;20493;-60
2023/07/30 11:24:20;;;;;;;0.20;0.20;;;;;;;;;;5135184;27;20071;-60
2023/07/30 11:26:56;;;;;;;0.20;0.20;;;;;;;;;;5152032;27;20096;-60
2023/07/30 11:29:22;;;;;;;0.20;0.20;;;;;;;;;;5148421;27;20057;-60
2023/07/30 11:31:47;;;;;;;0.10;0.10;;;;;;;;;;5151980;27;20055;-59
2023/07/30 11:34:14;;;;;;;0.20;0.20;;;;;;;;;;5147969;27;20547;-59
2023/07/30 11:36:40;;;;;;;0.20;0.20;;;;;;;;;;5145055;27;20459;-60
2023/07/30 11:39:06;;;;;;;0.20;0.20;;;;;;;;;;5152053;27;20054;-60
2023/07/30 11:41:32;;;;;;;0.10;0.10;;;;;;;;;;5151234;27;20096;-60
2023/07/30 11:43:58;;;;;;;0.20;0.20;;;;;;;;;;5152196;27;20047;-60
2023/07/30 11:46:23;;;;;;;0.10;0.10;;;;;;;;;;5149236;27;20054;-60
2023/07/30 11:48:51;;;;;;;0.17;0.17;;;;;;;;;;5132793;27;20039;-60
2023/07/30 11:51:18;;;;;;;0.20;0.20;;;;;;;;;;5140473;27;20301;-60
2023/07/30 11:53:46;;;;;;;0.20;0.20;;;;;;;;;;5131873;27;20377;-60
2023/07/30 11:56:16;;;;;;;0.20;0.20;;;;;;;;;;5131160;28;20047;-60
2023/07/30 11:58:41;;;;;;;0.20;0.20;;;;;;;;;;5138146;27;20089;-59
2023/07/30 12:01:07;;;;;;;0.10;0.10;;;;;;;;;;5150092;27;20139;-60
2023/07/30 12:03:32;;;;;;;0.22;0.22;;;;;;;;;;5137641;27;20081;-60
2023/07/30 12:06:03;;;;;;;0.20;0.20;;;;;;;;;;5134260;28;20428;-60
2023/07/30 12:08:29;;;;;;;0.20;0.20;;;;;;;;;;5134041;28;20051;-60
2023/07/30 12:10:56;;;;;;;0.20;0.20;;;;;;;;;;5143669;27;20051;-60
2023/07/30 12:13:22;;;;;;;0.20;0.20;;;;;;;;;;5154762;27;20407;-60
2023/07/30 12:15:52;;;;;;;0.20;0.20;;;;;;;;;;5154554;27;20420;-60
2023/07/30 12:18:18;;;;;;;0.20;0.20;;;;;;;;;;5154872;27;20123;-60
2023/07/30 12:20:43;;;;;;;0.20;0.20;;;;;;;;;;5154252;27;20095;-60
2023/07/30 12:23:09;;;;;;;0.20;0.20;;;;;;;;;;5153703;27;20047;-60
2023/07/30 12:25:35;;;;;;;0.20;0.20;;;;;;;;;;5147273;27;20047;-60
2023/07/30 12:28:00;;;;;;;0.20;0.20;;;;;;;;;;5149934;27;20053;-60
2023/07/30 12:30:27;;;;;;;0.20;0.20;;;;;;;;;;5152388;27;20043;-60
2023/07/30 12:32:53;;;;;;;0.20;0.20;;;;;;;;;;5154252;27;20043;-60
2023/07/30 12:35:19;;;;;;;0.20;0.20;;;;;;;;;;5153557;27;20711;-60
2023/07/30 12:37:44;;;;;;;0.20;0.20;;;;;;;;;;5150084;27;20066;-60
2023/07/30 12:40:10;;;;;;;0.20;0.20;;;;;;;;;;5137023;27;20652;-60
2023/07/30 12:42:35;;;;;;;0.20;0.20;;;;;;;;;;5153806;27;20406;-60
2023/07/30 12:45:01;;;;;;;0.20;0.20;;;;;;;;;;5154094;27;20051;-60
2023/07/30 12:47:26;;;;;;;0.20;0.20;;;;;;;;;;5144218;27;20050;-60
2023/07/30 12:49:52;;;;;;;0.20;0.20;;;;;;;;;;5148365;27;20491;-60
2023/07/30 12:52:17;;;;;;;0.20;0.20;;;;;;;;;;5138673;27;20059;-60
2023/07/30 12:54:43;;;;;;;0.20;0.20;;;;;;;;;;5146156;27;20445;-60
2023/07/30 12:57:08;;;;;;;0.20;0.20;;;;;;;;;;5154306;27;20050;-60
2023/07/30 12:59:36;;;;;;;0.20;0.20;;;;;;;;;;5153747;27;20053;-59
2023/07/30 13:02:01;;;;;;;0.20;0.20;;;;;;;;;;5137985;27;20127;-59
2023/07/30 13:04:27;;;;;;;0.20;0.20;;;;;;;;;;5139300;27;20043;-60
2023/07/30 13:06:53;;;;;;;0.20;0.20;;;;;;;;;;5133405;28;20435;-60
2023/07/30 13:09:18;;;;;;;0.20;0.20;;;;;;;;;;5133537;28;20051;-60
2023/07/30 13:11:44;;;;;;;0.10;0.10;;;;;;;;;;5149581;27;20442;-58
2023/07/30 13:14:09;;;;;;;0.20;0.20;;;;;;;;;;5154051;27;20471;-57
2023/07/30 13:16:35;;;;;;;0.20;0.20;;;;;;;;;;5153418;27;20070;-58
2023/07/30 13:19:01;;;;;;;0.17;0.17;;;;;;;;;;5154039;27;20038;-58
2023/07/30 13:21:26;;;;;;;0.20;0.20;;;;;;;;;;5153198;27;20046;-57
2023/07/30 13:23:52;;;;;;;0.20;0.20;;;;;;;;;;5153219;27;20051;-57
2023/07/30 13:26:18;;;;;;;0.20;0.20;;;;;;;;;;5152351;27;20054;-57
2023/07/30 13:28:44;;;;;;;0.20;0.20;;;;;;;;;;5141188;27;20047;-56
2023/07/30 13:31:10;;;;;;;0.20;0.20;;;;;;;;;;5144666;27;20039;-57
2023/07/30 13:33:36;;;;;;;0.20;0.20;;;;;;;;;;5152398;27;20091;-58
2023/07/30 13:36:02;;;;;;;0.10;0.10;;;;;;;;;;5153649;27;20046;-59
2023/07/30 13:38:27;;;;;;;0.20;0.20;;;;;;;;;;5152219;27;20555;-60
2023/07/30 13:40:53;;;;;;;0.10;0.10;;;;;;;;;;5150474;27;20050;-59
2023/07/30 13:43:19;;;;;;;0.20;0.20;;;;;;;;;;5152981;27;20555;-59
2023/07/30 13:45:44;;;;;;;0.10;0.10;;;;;;;;;;5152979;27;20070;-60
2023/07/30 13:48:10;;;;;;;0.20;0.20;;;;;;;;;;5137237;27;20047;-59
2023/07/30 13:50:36;;;;;;;0.10;0.10;;;;;;;;;;5140298;27;20043;-60
2023/07/30 13:53:02;;;;;;;0.10;0.10;;;;;;;;;;5149519;27;20043;-60
2023/07/30 13:55:27;;;;;;;0.20;0.20;;;;;;;;;;5144643;27;20070;-60
2023/07/30 13:57:53;;;;;;;0.20;0.20;;;;;;;;;;5132620;27;20051;-60
2023/07/30 14:00:19;;;;;;;0.10;0.10;;;;;;;;;;5136846;27;20043;-58
2023/07/30 14:02:44;;;;;;;0.20;0.20;;;;;;;;;;5151756;27;20047;-60
2023/07/30 14:05:10;;;;;;;0.10;0.10;;;;;;;;;;5152118;27;20053;-59
2023/07/30 14:07:36;;;;;;;0.20;0.20;;;;;;;;;;5152362;27;20085;-60
2023/07/30 14:10:02;;;;;;;0.10;0.10;;;;;;;;;;5152539;27;20038;-60
2023/07/30 14:12:27;;;;;;;0.20;0.20;;;;;;;;;;5152465;27;20539;-59
2023/07/30 14:14:53;;;;;;;0.20;0.20;;;;;;;;;;5152772;27;20463;-60
2023/07/30 14:17:18;;;;;;;0.10;0.10;;;;;;;;;;5152577;27;20081;-60
2023/07/30 14:19:44;;;;;;;0.20;0.20;;;;;;;;;;5152903;27;20047;-59
2023/07/30 14:22:10;;;;;;;0.20;0.20;;;;;;;;;;5152569;27;20084;-60
2023/07/30 14:24:37;;;;;;;0.10;0.10;;;;;;;;;;5152643;27;20137;-59
2023/07/30 14:27:03;;;;;;;0.20;0.20;;;;;;;;;;5146515;27;20055;-59
2023/07/30 14:29:28;;;;;;;0.20;0.20;;;;;;;;;;5137196;27;20050;-63
2023/07/30 14:31:54;;;;;;;0.20;0.20;;;;;;;;;;5132366;27;20051;-59
2023/07/30 14:34:19;;;;;;;0.20;0.20;;;;;;;;;;5135062;27;20078;-60
2023/07/30 14:36:45;;;;;;;0.20;0.20;;;;;;;;;;5132167;28;20054;-60